sensor_id;sensor_type;location;lat;lon;timestamp;P1;durP1;ratioP1;P2;durP2;ratioP2
5827;SDS011;42583;50.240;8.444;2022-11-27T00:01:10;8.00;;;3.40;;
5827;SDS011;42583;50.240;8.444;2022-11-27T00:16:12;5.82;;;2.20;;
5827;SDS011;42583;50.240;8.444;2022-11-27T00:31:18;4.38;;;2.20;;
5827;SDS011;42583;50.240;8.444;2022-11-27T00:46:21;6.78;;;2.80;;
5827;SDS011;42583;50.240;8.444;2022-11-27T01:01:24;7.90;;;3.03;;
5827;SDS011;42583;50.240;8.444;2022-11-27T01:16:31;6.05;;;2.58;;
5827;SDS011;42583;50.240;8.444;2022-11-27T01:31:33;7.80;;;2.20;;
5827;SDS011;42583;50.240;8.444;2022-11-27T02:32:24;8.25;;;3.30;;
5827;SDS011;42583;50.240;8.444;2022-11-27T02:47:31;9.05;;;3.40;;
5827;SDS011;42583;50.240;8.444;2022-11-27T03:02:34;11.30;;;4.57;;
5827;SDS011;42583;50.240;8.444;2022-11-27T03:17:47;14.52;;;3.85;;
5827;SDS011;42583;50.240;8.444;2022-11-27T03:32:54;13.25;;;3.58;;
5827;SDS011;42583;50.240;8.444;2022-11-27T04:03:25;10.30;;;3.78;;
5827;SDS011;42583;50.240;8.444;2022-11-27T04:18:28;13.75;;;3.10;;
5827;SDS011;42583;50.240;8.444;2022-11-27T04:33:28;10.73;;;3.30;;
5827;SDS011;42583;50.240;8.444;2022-11-27T04:48:29;8.23;;;2.70;;
5827;SDS011;42583;50.240;8.444;2022-11-27T05:03:29;8.65;;;2.67;;
5827;SDS011;42583;50.240;8.444;2022-11-27T05:18:30;9.52;;;2.53;;
5827;SDS011;42583;50.240;8.444;2022-11-27T05:33:31;8.00;;;2.20;;
5827;SDS011;42583;50.240;8.444;2022-11-27T05:48:32;7.22;;;2.17;;
5827;SDS011;42583;50.240;8.444;2022-11-27T06:03:34;7.63;;;1.95;;
5827;SDS011;42583;50.240;8.444;2022-11-27T06:18:35;7.55;;;2.13;;
5827;SDS011;42583;50.240;8.444;2022-11-27T06:33:35;3.65;;;2.05;;
5827;SDS011;42583;50.240;8.444;2022-11-27T06:48:36;9.70;;;2.28;;
5827;SDS011;42583;50.240;8.444;2022-11-27T07:03:36;4.68;;;1.83;;
5827;SDS011;42583;50.240;8.444;2022-11-27T07:18:38;4.72;;;1.85;;
5827;SDS011;42583;50.240;8.444;2022-11-27T07:33:40;7.20;;;2.70;;
5827;SDS011;42583;50.240;8.444;2022-11-27T07:48:41;8.82;;;2.08;;
5827;SDS011;42583;50.240;8.444;2022-11-27T08:03:41;5.72;;;1.92;;
5827;SDS011;42583;50.240;8.444;2022-11-27T08:18:43;6.65;;;1.70;;
5827;SDS011;42583;50.240;8.444;2022-11-27T08:33:43;6.00;;;2.15;;
5827;SDS011;42583;50.240;8.444;2022-11-27T08:48:44;5.25;;;1.50;;
5827;SDS011;42583;50.240;8.444;2022-11-27T09:03:44;4.47;;;1.60;;
5827;SDS011;42583;50.240;8.444;2022-11-27T09:18:47;4.25;;;1.83;;
5827;SDS011;42583;50.240;8.444;2022-11-27T09:33:49;4.70;;;1.58;;
5827;SDS011;42583;50.240;8.444;2022-11-27T09:48:50;5.38;;;1.83;;
5827;SDS011;42583;50.240;8.444;2022-11-27T10:03:51;7.68;;;1.55;;
5827;SDS011;42583;50.240;8.444;2022-11-27T10:18:59;7.05;;;1.80;;
5827;SDS011;42583;50.240;8.444;2022-11-27T10:49:42;4.57;;;1.52;;
5827;SDS011;42583;50.240;8.444;2022-11-27T11:04:45;4.00;;;1.50;;
5827;SDS011;42583;50.240;8.444;2022-11-27T11:19:46;5.47;;;1.00;;
5827;SDS011;42583;50.240;8.444;2022-11-27T11:49:51;2.63;;;1.27;;
5827;SDS011;42583;50.240;8.444;2022-11-27T12:20:13;2.47;;;1.30;;
5827;SDS011;42583;50.240;8.444;2022-11-27T12:50:49;2.55;;;1.30;;
5827;SDS011;42583;50.240;8.444;2022-11-27T13:06:13;1.53;;;0.97;;
5827;SDS011;42583;50.240;8.444;2022-11-27T13:21:22;2.33;;;1.10;;
5827;SDS011;42583;50.240;8.444;2022-11-27T13:36:26;3.53;;;1.35;;
5827;SDS011;42583;50.240;8.444;2022-11-27T13:51:34;2.97;;;1.25;;
5827;SDS011;42583;50.240;8.444;2022-11-27T14:06:36;4.90;;;1.45;;
5827;SDS011;42583;50.240;8.444;2022-11-27T14:21:38;1.92;;;1.40;;
5827;SDS011;42583;50.240;8.444;2022-11-27T14:36:41;4.32;;;1.50;;
5827;SDS011;42583;50.240;8.444;2022-11-27T14:51:42;4.07;;;2.00;;
5827;SDS011;42583;50.240;8.444;2022-11-27T15:06:44;6.57;;;2.50;;
5827;SDS011;42583;50.240;8.444;2022-11-27T15:21:46;3.83;;;2.40;;
5827;SDS011;42583;50.240;8.444;2022-11-27T15:51:56;6.70;;;3.10;;
5827;SDS011;42583;50.240;8.444;2022-11-27T16:06:57;7.40;;;3.50;;
5827;SDS011;42583;50.240;8.444;2022-11-27T16:21:58;5.32;;;2.47;;
5827;SDS011;42583;50.240;8.444;2022-11-27T16:37:00;6.63;;;2.60;;
5827;SDS011;42583;50.240;8.444;2022-11-27T16:52:00;4.22;;;2.47;;
5827;SDS011;42583;50.240;8.444;2022-11-27T17:07:02;4.13;;;2.20;;
5827;SDS011;42583;50.240;8.444;2022-11-27T17:22:02;5.88;;;2.53;;
5827;SDS011;42583;50.240;8.444;2022-11-27T17:37:03;3.55;;;1.83;;
5827;SDS011;42583;50.240;8.444;2022-11-27T17:52:03;3.25;;;1.40;;
5827;SDS011;42583;50.240;8.444;2022-11-27T18:07:04;3.15;;;1.50;;
5827;SDS011;42583;50.240;8.444;2022-11-27T18:22:05;2.60;;;1.58;;
5827;SDS011;42583;50.240;8.444;2022-11-27T18:37:08;3.95;;;1.90;;
5827;SDS011;42583;50.240;8.444;2022-11-27T18:52:09;3.33;;;1.90;;
5827;SDS011;42583;50.240;8.444;2022-11-27T19:07:10;3.17;;;1.50;;
5827;SDS011;42583;50.240;8.444;2022-11-27T19:22:10;2.97;;;1.33;;
5827;SDS011;42583;50.240;8.444;2022-11-27T19:37:11;2.67;;;1.50;;
5827;SDS011;42583;50.240;8.444;2022-11-27T19:52:11;2.47;;;1.50;;
5827;SDS011;42583;50.240;8.444;2022-11-27T20:07:12;3.13;;;2.05;;
5827;SDS011;42583;50.240;8.444;2022-11-27T20:22:12;3.05;;;2.00;;
5827;SDS011;42583;50.240;8.444;2022-11-27T20:37:13;4.00;;;1.88;;
5827;SDS011;42583;50.240;8.444;2022-11-27T20:52:14;4.30;;;1.90;;
5827;SDS011;42583;50.240;8.444;2022-11-27T21:07:14;5.85;;;1.90;;
5827;SDS011;42583;50.240;8.444;2022-11-27T21:22:15;3.28;;;1.60;;
5827;SDS011;42583;50.240;8.444;2022-11-27T21:37:16;3.70;;;1.75;;
5827;SDS011;42583;50.240;8.444;2022-11-27T21:52:16;3.88;;;2.10;;
5827;SDS011;42583;50.240;8.444;2022-11-27T22:07:17;2.45;;;1.45;;
5827;SDS011;42583;50.240;8.444;2022-11-27T22:22:17;6.68;;;2.00;;
5827;SDS011;42583;50.240;8.444;2022-11-27T22:37:18;2.10;;;1.42;;
5827;SDS011;42583;50.240;8.444;2022-11-27T22:52:18;4.78;;;1.48;;
5827;SDS011;42583;50.240;8.444;2022-11-27T23:07:19;4.10;;;1.60;;
5827;SDS011;42583;50.240;8.444;2022-11-27T23:22:19;3.33;;;1.90;;
5827;SDS011;42583;50.240;8.444;2022-11-27T23:37:20;2.67;;;1.73;;
5827;SDS011;42583;50.240;8.444;2022-11-27T23:52:20;2.70;;;1.42;;
